Terminal Aerodrome Forecast
Issued by NWS

Home | Current Version | Previous Version | Text Only | Print | Product List | Glossary On
Versions: 1 2 3 4 5 6 7 8 9 10 11 12 13 14 15 16 17 18 19 20 21 22 23 24 25 26 27 28 29 30
000
FTUS41 KBOX 192007 AAA
TAFHYA
TAF AMD
KHYA 192007Z 1920/2018 34008KT 5SM -SHRA BKN007 OVC015
     FM200000 27005KT P6SM VCSH OVC008
     FM200300 30009KT P6SM VCSH OVC025
     FM200600 31013KT P6SM BKN035
     FM201100 30013G20KT P6SM SCT045
     FM201600 31012G21KT P6SM BKN050=

USA.gov is the U.S. government's official web portal to all federal, state and local government web resources and services.